createdAt,value
2023-01-15T00:02:10.595Z,67.40
2023-01-15T00:04:37.662Z,67.30
2023-01-15T00:07:04.753Z,67.40
2023-01-15T00:09:31.772Z,67.30
2023-01-15T00:11:58.686Z,67.50
2023-01-15T00:14:25.675Z,67.50
2023-01-15T00:16:53.149Z,67.50
2023-01-15T00:19:20.420Z,67.50
2023-01-15T00:21:47.392Z,67.50
2023-01-15T00:24:32.624Z,67.80
2023-01-15T00:27:17.918Z,68.00
2023-01-15T00:29:45.157Z,68.20
2023-01-15T00:32:12.023Z,68.30
2023-01-15T00:34:39.215Z,68.30
2023-01-15T00:37:06.049Z,68.40
2023-01-15T00:39:34.697Z,68.30
2023-01-15T00:42:01.692Z,68.30
2023-01-15T00:44:28.659Z,68.60
2023-01-15T00:46:55.582Z,68.70
2023-01-15T00:49:22.546Z,68.80
2023-01-15T00:51:50.228Z,68.70
2023-01-15T00:54:17.994Z,68.70
2023-01-15T00:56:44.989Z,68.80
2023-01-15T00:59:11.939Z,68.90
2023-01-15T01:01:39.386Z,68.80
2023-01-15T01:04:06.418Z,68.80
2023-01-15T01:06:33.395Z,68.50
2023-01-15T01:09:00.306Z,68.50
2023-01-15T01:11:28.532Z,68.60
2023-01-15T01:13:55.885Z,68.50
2023-01-15T01:16:32.039Z,68.20
2023-01-15T01:19:00.119Z,68.40
2023-01-15T01:21:27.401Z,68.60
2023-01-15T01:23:55.159Z,68.40
2023-01-15T01:26:22.147Z,68.10
2023-01-15T01:28:50.163Z,68.10
2023-01-15T01:31:17.195Z,68.40
2023-01-15T01:33:44.371Z,68.70
2023-01-15T01:36:11.286Z,68.50
2023-01-15T01:38:38.227Z,68.50
2023-01-15T01:41:05.249Z,68.50
2023-01-15T01:43:32.423Z,68.70
2023-01-15T01:45:59.378Z,69.10
2023-01-15T01:48:31.601Z,69.10
2023-01-15T01:50:59.896Z,68.80
2023-01-15T01:53:29.031Z,68.70
2023-01-15T01:55:56.675Z,68.80
2023-01-15T01:58:25.597Z,69.20
2023-01-15T02:00:53.140Z,69.30
2023-01-15T02:03:22.481Z,69.00
2023-01-15T02:05:52.651Z,68.80
2023-01-15T02:08:19.633Z,68.90
2023-01-15T02:10:49.120Z,69.20
2023-01-15T02:13:19.073Z,69.00
2023-01-15T02:15:47.894Z,69.10
2023-01-15T02:18:20.579Z,69.20
2023-01-15T02:20:50.478Z,69.00
2023-01-15T02:23:26.956Z,69.00
2023-01-15T02:25:56.820Z,69.20
2023-01-15T02:28:29.634Z,69.50
2023-01-15T02:31:10.335Z,69.50
2023-01-15T02:33:39.523Z,69.30
2023-01-15T02:36:08.873Z,69.00
2023-01-15T02:38:37.809Z,69.10
2023-01-15T02:41:06.241Z,69.30
2023-01-15T02:43:35.705Z,69.50
2023-01-15T02:46:04.211Z,69.70
2023-01-15T02:48:33.052Z,69.70
2023-01-15T02:51:04.019Z,69.40
2023-01-15T02:53:31.588Z,69.40
2023-01-15T02:56:01.773Z,69.60
2023-01-15T02:58:34.907Z,69.60
2023-01-15T03:01:04.387Z,69.10
2023-01-15T03:03:36.284Z,69.10
2023-01-15T03:06:06.300Z,69.30
2023-01-15T03:08:33.231Z,69.50
2023-01-15T03:11:17.143Z,69.60
2023-01-15T03:13:53.015Z,69.60
2023-01-15T03:16:38.380Z,69.60
2023-01-15T03:19:08.367Z,69.30
2023-01-15T03:21:38.187Z,69.20
2023-01-15T03:24:06.456Z,69.30
2023-01-15T03:26:33.455Z,69.10
2023-01-15T03:29:00.764Z,69.30
2023-01-15T03:31:28.605Z,69.50
2023-01-15T03:33:55.531Z,69.60
2023-01-15T03:36:22.476Z,69.30
2023-01-15T03:38:51.056Z,69.30
2023-01-15T03:41:27.545Z,69.40
2023-01-15T03:44:12.845Z,69.60
2023-01-15T03:46:45.657Z,69.60
2023-01-15T03:49:38.826Z,69.50
2023-01-15T03:52:11.570Z,69.60
2023-01-15T03:54:41.409Z,69.70
2023-01-15T03:57:13.975Z,70.10
2023-01-15T03:59:52.028Z,70.20
2023-01-15T04:02:19.429Z,70.30
2023-01-15T04:04:47.542Z,70.20
2023-01-15T04:07:14.893Z,70.10
2023-01-15T04:09:41.973Z,70.30
2023-01-15T04:12:09.214Z,70.30
2023-01-15T04:14:36.581Z,70.20
2023-01-15T04:17:03.675Z,70.10
2023-01-15T04:19:30.620Z,70.00
2023-01-15T04:21:57.617Z,70.00
2023-01-15T04:24:24.460Z,70.00
2023-01-15T04:26:51.391Z,69.90
2023-01-15T04:29:18.329Z,70.10
2023-01-15T04:31:45.179Z,70.20
2023-01-15T04:34:12.146Z,70.20
2023-01-15T04:36:39.452Z,70.10
2023-01-15T04:39:06.407Z,70.00
2023-01-15T04:41:51.737Z,70.00
2023-01-15T04:44:18.702Z,69.80
2023-01-15T04:46:47.944Z,69.80
2023-01-15T04:49:17.036Z,69.80
2023-01-15T04:51:44.464Z,69.70
2023-01-15T04:54:12.901Z,69.70
2023-01-15T04:56:41.454Z,69.60
2023-01-15T04:59:08.879Z,69.60
2023-01-15T05:01:36.424Z,69.40
2023-01-15T05:04:03.913Z,69.30
2023-01-15T05:06:33.524Z,69.50
2023-01-15T05:09:01.783Z,69.90
2023-01-15T05:11:28.797Z,70.20
2023-01-15T05:13:55.754Z,70.50
2023-01-15T05:16:27.053Z,70.80
2023-01-15T05:18:55.125Z,70.90
2023-01-15T05:21:23.268Z,71.10
2023-01-15T05:23:51.145Z,70.90
2023-01-15T05:26:18.474Z,70.90
2023-01-15T05:28:45.673Z,70.90
2023-01-15T05:31:14.532Z,71.00
2023-01-15T05:33:42.915Z,70.90
2023-01-15T05:36:14.294Z,70.90
2023-01-15T05:38:41.224Z,71.40
2023-01-15T05:41:28.136Z,71.60
2023-01-15T05:43:55.858Z,71.20
2023-01-15T05:46:22.863Z,71.40
2023-01-15T05:48:49.941Z,71.70
2023-01-15T05:51:17.218Z,71.80
2023-01-15T05:53:44.184Z,71.30
2023-01-15T05:56:11.108Z,71.50
2023-01-15T05:58:38.467Z,71.80
2023-01-15T06:01:09.076Z,71.90
2023-01-15T06:03:37.253Z,71.90
2023-01-15T06:06:04.655Z,71.80
2023-01-15T06:08:31.576Z,71.70
2023-01-15T06:10:58.577Z,71.50
2023-01-15T06:13:25.429Z,71.30
2023-01-15T06:15:52.444Z,71.30
2023-01-15T06:18:19.392Z,71.30
2023-01-15T06:20:46.509Z,71.20
2023-01-15T06:23:13.433Z,71.20
2023-01-15T06:25:40.324Z,71.30
2023-01-15T06:28:08.150Z,71.00
2023-01-15T06:30:36.317Z,70.90
2023-01-15T06:33:03.917Z,70.90
2023-01-15T06:35:31.097Z,71.00
2023-01-15T06:37:58.096Z,70.90
2023-01-15T06:40:27.105Z,71.00
2023-01-15T06:43:12.554Z,70.90
2023-01-15T06:45:58.811Z,70.90
2023-01-15T06:48:26.373Z,70.80
2023-01-15T06:50:53.867Z,70.80
2023-01-15T06:53:21.290Z,70.80
2023-01-15T06:55:48.181Z,70.60
2023-01-15T06:58:15.189Z,70.40
2023-01-15T07:00:46.951Z,70.40
2023-01-15T07:03:14.636Z,70.40
2023-01-15T07:05:41.587Z,70.50
2023-01-15T07:08:08.443Z,70.40
2023-01-15T07:10:35.853Z,70.40
2023-01-15T07:13:05.684Z,70.50
2023-01-15T07:15:32.603Z,70.50
2023-01-15T07:17:59.455Z,70.50
2023-01-15T07:20:26.333Z,70.30
2023-01-15T07:22:53.189Z,70.20
2023-01-15T07:25:20.179Z,70.30
2023-01-15T07:27:48.057Z,70.10
2023-01-15T07:30:15.603Z,69.80
2023-01-15T07:32:42.490Z,69.90
2023-01-15T07:35:10.372Z,69.80
2023-01-15T07:37:38.281Z,69.70
2023-01-15T07:40:05.531Z,69.70
2023-01-15T07:42:50.962Z,69.70
2023-01-15T07:45:36.340Z,69.70
2023-01-15T07:48:21.644Z,69.60
2023-01-15T07:50:49.301Z,69.40
2023-01-15T07:53:16.322Z,69.00
2023-01-15T07:55:43.319Z,68.90
2023-01-15T07:58:10.255Z,69.10
2023-01-15T08:00:37.106Z,69.10
2023-01-15T08:03:04.147Z,69.30
2023-01-15T08:05:32.470Z,69.10
2023-01-15T08:07:59.369Z,69.20
2023-01-15T08:10:26.618Z,69.10
2023-01-15T08:13:12.254Z,69.00
2023-01-15T08:15:40.132Z,68.90
2023-01-15T08:18:07.616Z,68.80
2023-01-15T08:20:34.897Z,68.90
2023-01-15T08:23:01.944Z,68.80
2023-01-15T08:25:28.813Z,68.60
2023-01-15T08:27:55.780Z,68.60
2023-01-15T08:30:24.216Z,68.70
2023-01-15T08:32:51.365Z,68.70
2023-01-15T08:35:18.442Z,68.60
2023-01-15T08:37:45.366Z,68.40
2023-01-15T08:40:12.872Z,68.40
2023-01-15T08:42:40.002Z,68.30
2023-01-15T08:45:07.197Z,68.10
2023-01-15T08:47:34.131Z,67.70
2023-01-15T08:50:01.063Z,67.80
2023-01-15T08:52:27.886Z,67.90
2023-01-15T08:54:54.807Z,68.00
2023-01-15T08:57:21.792Z,68.00
2023-01-15T08:59:48.670Z,67.90
2023-01-15T09:02:17.844Z,67.50
2023-01-15T09:04:44.771Z,67.50
2023-01-15T09:07:12.828Z,67.10
2023-01-15T09:09:39.730Z,67.40
2023-01-15T09:12:09.238Z,67.70
2023-01-15T09:14:56.586Z,67.80
2023-01-15T09:17:24.038Z,67.90
2023-01-15T09:19:52.182Z,68.00
2023-01-15T09:22:19.032Z,67.70
2023-01-15T09:24:46.640Z,67.50
2023-01-15T09:27:13.563Z,67.50
2023-01-15T09:29:40.486Z,67.70
2023-01-15T09:32:08.351Z,67.80
2023-01-15T09:34:35.243Z,67.90
2023-01-15T09:37:02.132Z,67.90
2023-01-15T09:39:29.067Z,67.50
2023-01-15T09:42:16.239Z,67.50
2023-01-15T09:45:02.096Z,67.20
2023-01-15T09:47:35.850Z,67.20
2023-01-15T09:50:17.666Z,67.00
2023-01-15T09:52:50.585Z,67.20
2023-01-15T09:55:24.542Z,67.30
2023-01-15T09:57:54.286Z,67.40
2023-01-15T10:00:24.280Z,67.40
2023-01-15T10:02:55.828Z,67.30
2023-01-15T10:05:42.487Z,67.30
2023-01-15T10:08:12.510Z,67.30
2023-01-15T10:10:45.658Z,67.20
2023-01-15T10:13:41.687Z,67.10
2023-01-15T10:16:09.710Z,67.00
2023-01-15T10:18:36.594Z,66.90
2023-01-15T10:21:12.707Z,66.80
2023-01-15T10:23:45.736Z,66.70
2023-01-15T10:26:17.553Z,66.60
2023-01-15T10:28:50.371Z,66.50
2023-01-15T10:31:21.829Z,66.40
2023-01-15T10:33:54.476Z,66.50
2023-01-15T10:36:39.953Z,66.50
2023-01-15T10:39:27.067Z,66.40
2023-01-15T10:42:05.313Z,66.40
2023-01-15T10:44:51.072Z,66.30
2023-01-15T10:47:19.185Z,66.20
2023-01-15T10:49:46.785Z,66.30
2023-01-15T10:52:33.886Z,65.90
2023-01-15T10:55:06.634Z,66.00
2023-01-15T10:57:36.479Z,66.10
2023-01-15T11:00:03.857Z,66.20
2023-01-15T11:03:10.327Z,66.20
2023-01-15T11:05:38.933Z,66.20
2023-01-15T11:08:45.170Z,66.00
2023-01-15T11:10:55.465Z,66.10
2023-01-15T11:13:41.946Z,66.20
2023-01-15T11:16:44.376Z,66.30
2023-01-15T11:19:39.970Z,66.30
2023-01-15T11:22:09.917Z,66.40
2023-01-15T11:24:37.979Z,66.20
2023-01-15T11:27:05.826Z,66.30
2023-01-15T11:29:34.655Z,66.40
2023-01-15T11:32:01.645Z,66.40
2023-01-15T11:34:28.507Z,66.30
2023-01-15T11:37:05.054Z,66.30
2023-01-15T11:39:32.437Z,66.40
2023-01-15T11:42:22.060Z,66.60
2023-01-15T11:45:14.575Z,66.70
2023-01-15T11:48:10.013Z,66.80
2023-01-15T11:50:46.641Z,67.10
2023-01-15T11:53:18.905Z,67.30
2023-01-15T11:58:40.871Z,67.50
2023-01-15T12:01:07.965Z,67.80
2023-01-15T12:03:36.452Z,68.00
2023-01-15T12:06:06.148Z,67.90
2023-01-15T12:08:40.204Z,68.00
2023-01-15T12:11:27.367Z,68.30
2023-01-15T12:13:54.464Z,68.60
2023-01-15T12:16:27.551Z,69.00
2023-01-15T12:19:00.873Z,69.20
2023-01-15T12:21:30.695Z,69.40
2023-01-15T12:24:16.475Z,69.50
2023-01-15T12:26:46.622Z,69.80
2023-01-15T12:29:22.058Z,70.90
2023-01-15T12:31:51.272Z,71.40
2023-01-15T12:34:20.898Z,70.90
2023-01-15T12:36:51.598Z,70.80
2023-01-15T12:39:18.564Z,71.00
2023-01-15T12:42:06.326Z,71.00
2023-01-15T12:44:57.680Z,71.20
2023-01-15T12:47:30.029Z,71.60
2023-01-15T12:50:17.214Z,72.00
2023-01-15T12:52:45.823Z,72.10
2023-01-15T12:55:16.988Z,72.40
2023-01-15T12:57:49.754Z,72.50
2023-01-15T13:00:28.810Z,72.70
2023-01-15T13:02:58.963Z,72.90
2023-01-15T13:05:29.290Z,73.00
2023-01-15T13:07:59.166Z,73.20
2023-01-15T13:10:36.407Z,73.40
2023-01-15T13:13:25.213Z,73.50
2023-01-15T13:16:00.419Z,73.60
2023-01-15T13:18:32.370Z,73.70
2023-01-15T13:21:00.655Z,73.80
2023-01-15T13:23:33.613Z,73.90
2023-01-15T13:26:08.186Z,74.00
2023-01-15T13:28:35.177Z,74.10
2023-01-15T13:31:08.389Z,74.20
2023-01-15T13:33:41.254Z,74.30
2023-01-15T13:36:16.565Z,74.40
2023-01-15T13:38:45.584Z,74.50
2023-01-15T13:41:14.967Z,74.70
2023-01-15T13:43:42.954Z,74.70
2023-01-15T13:46:13.960Z,74.90
2023-01-15T13:48:45.430Z,74.90
2023-01-15T13:51:24.565Z,75.00
2023-01-15T13:53:51.613Z,75.10
2023-01-15T13:56:29.422Z,75.20
2023-01-15T13:58:57.809Z,75.50
2023-01-15T14:01:30.929Z,75.60
2023-01-15T14:04:01.044Z,75.80
2023-01-15T14:06:39.725Z,76.10
2023-01-15T14:09:07.229Z,76.30
2023-01-15T14:11:35.447Z,76.60
2023-01-15T14:14:02.320Z,76.60
2023-01-15T14:16:32.038Z,76.80
2023-01-15T14:18:58.893Z,76.70
2023-01-15T14:21:44.545Z,76.90
2023-01-15T14:24:11.402Z,77.00
2023-01-15T14:26:41.246Z,77.10
2023-01-15T14:29:14.077Z,77.20
2023-01-15T14:31:51.179Z,77.30
2023-01-15T14:34:25.781Z,77.40
2023-01-15T14:36:54.369Z,77.60
2023-01-15T14:39:24.183Z,77.80
2023-01-15T14:42:13.896Z,77.90
2023-01-15T14:44:43.162Z,77.90
2023-01-15T14:47:18.567Z,77.90
2023-01-15T14:49:52.529Z,77.90
2023-01-15T14:52:23.844Z,77.90
2023-01-15T14:54:52.242Z,77.70
2023-01-15T14:57:20.209Z,77.70
2023-01-15T14:59:53.282Z,77.60
2023-01-15T15:02:36.410Z,77.30
2023-01-15T15:05:09.109Z,77.10
2023-01-15T15:07:41.682Z,77.20
2023-01-15T15:10:30.307Z,77.20
2023-01-15T15:12:57.743Z,77.20
2023-01-15T15:15:27.819Z,77.20
2023-01-15T15:17:57.823Z,77.30
2023-01-15T15:20:44.994Z,77.20
2023-01-15T15:23:14.731Z,77.30
2023-01-15T15:25:42.008Z,77.20
2023-01-15T15:28:12.442Z,77.30
2023-01-15T15:30:43.922Z,77.30
2023-01-15T15:33:15.412Z,77.30
2023-01-15T15:35:46.523Z,77.30
2023-01-15T15:38:17.622Z,77.30
2023-01-15T15:40:50.610Z,77.40
2023-01-15T15:43:56.173Z,77.40
2023-01-15T15:46:52.447Z,77.30
2023-01-15T15:49:22.023Z,77.50
2023-01-15T15:51:50.089Z,77.50
2023-01-15T15:54:19.841Z,77.60
2023-01-15T15:56:46.766Z,77.60
2023-01-15T15:59:19.242Z,77.70
2023-01-15T16:01:46.335Z,77.80
2023-01-15T16:04:18.141Z,77.90
2023-01-15T16:06:45.324Z,78.00
2023-01-15T16:09:12.376Z,78.00
2023-01-15T16:11:40.018Z,78.20
2023-01-15T16:14:08.531Z,78.20
2023-01-15T16:16:38.819Z,78.20
2023-01-15T16:19:06.112Z,78.30
2023-01-15T16:21:36.617Z,78.30
2023-01-15T16:24:04.922Z,78.40
2023-01-15T16:26:35.102Z,78.40
2023-01-15T16:29:03.766Z,78.50
2023-01-15T16:31:34.918Z,78.60
2023-01-15T16:34:02.523Z,78.60
2023-01-15T16:36:38.342Z,78.60
2023-01-15T16:39:15.678Z,78.70
2023-01-15T16:41:42.748Z,78.80
2023-01-15T16:44:25.042Z,78.70
2023-01-15T16:46:56.140Z,78.70
2023-01-15T16:49:23.148Z,78.70
2023-01-15T16:51:54.127Z,78.70
2023-01-15T16:54:32.299Z,78.70
2023-01-15T16:57:00.128Z,78.80
2023-01-15T16:59:27.119Z,79.00
2023-01-15T17:02:03.068Z,79.10
2023-01-15T17:04:30.098Z,79.10
2023-01-15T17:06:56.997Z,79.10
2023-01-15T17:09:24.875Z,79.20
2023-01-15T17:11:53.121Z,79.20
2023-01-15T17:14:21.645Z,79.20
2023-01-15T17:16:48.767Z,79.30
2023-01-15T17:19:16.875Z,79.30
2023-01-15T17:21:47.523Z,79.50
2023-01-15T17:24:17.628Z,79.60
2023-01-15T17:26:44.522Z,79.50
2023-01-15T17:29:12.327Z,79.50
2023-01-15T17:31:40.336Z,79.60
2023-01-15T17:34:07.263Z,79.60
2023-01-15T17:36:34.729Z,79.70
2023-01-15T17:39:01.744Z,79.70
2023-01-15T17:41:28.675Z,79.80
2023-01-15T17:43:55.574Z,79.80
2023-01-15T17:46:22.649Z,79.90
2023-01-15T17:48:49.653Z,79.90
2023-01-15T17:51:16.998Z,80.00
2023-01-15T17:53:44.142Z,80.00
2023-01-15T17:56:29.832Z,80.00
2023-01-15T17:59:15.208Z,80.00
2023-01-15T18:02:05.992Z,80.10
2023-01-15T18:04:55.437Z,80.10
2023-01-15T18:07:23.602Z,79.90
2023-01-15T18:09:53.153Z,79.90
2023-01-15T18:12:20.357Z,80.00
2023-01-15T18:14:47.847Z,80.20
2023-01-15T18:17:14.976Z,81.20
2023-01-15T18:19:41.995Z,80.80
2023-01-15T18:22:10.599Z,80.20
2023-01-15T18:24:37.770Z,80.10
2023-01-15T18:27:08.251Z,80.00
2023-01-15T18:29:40.224Z,80.10
2023-01-15T18:32:10.215Z,79.90
2023-01-15T18:34:37.583Z,80.00
2023-01-15T18:37:04.788Z,80.00
2023-01-15T18:39:31.685Z,80.00
2023-01-15T18:41:58.653Z,79.90
2023-01-15T18:44:44.544Z,79.80
2023-01-15T18:47:13.558Z,79.80
2023-01-15T18:49:41.346Z,79.80
2023-01-15T18:52:27.731Z,79.80
2023-01-15T18:54:55.031Z,79.70
2023-01-15T18:57:22.568Z,79.70
2023-01-15T18:59:49.762Z,79.80
2023-01-15T19:02:17.361Z,79.70
2023-01-15T19:04:44.378Z,79.60
2023-01-15T19:07:11.524Z,79.70
2023-01-15T19:09:38.530Z,79.70
2023-01-15T19:12:06.602Z,79.70
2023-01-15T19:14:52.350Z,79.80
2023-01-15T19:17:39.254Z,79.70
2023-01-15T19:20:07.143Z,79.60
2023-01-15T19:22:52.688Z,79.60
2023-01-15T19:25:20.631Z,79.50
2023-01-15T19:27:48.387Z,79.50
2023-01-15T19:30:15.341Z,79.30
2023-01-15T19:32:42.556Z,79.50
2023-01-15T19:35:09.621Z,79.60
2023-01-15T19:37:39.541Z,79.80
2023-01-15T19:40:07.274Z,79.80
2023-01-15T19:42:52.730Z,79.90
2023-01-15T19:45:38.065Z,80.10
2023-01-15T19:48:24.117Z,80.10
2023-01-15T19:50:54.261Z,80.10
2023-01-15T19:53:21.152Z,80.10
2023-01-15T19:55:48.088Z,80.10
2023-01-15T19:58:15.812Z,80.20
2023-01-15T20:00:43.722Z,80.40
2023-01-15T20:03:12.111Z,80.30
2023-01-15T20:05:39.833Z,80.30
2023-01-15T20:08:09.184Z,80.30
2023-01-15T20:10:38.558Z,80.30
2023-01-15T20:13:24.001Z,80.30
2023-01-15T20:15:51.056Z,80.40
2023-01-15T20:18:18.890Z,80.30
2023-01-15T20:20:45.900Z,80.30
2023-01-15T20:23:12.907Z,80.30
2023-01-15T20:25:41.528Z,80.20
2023-01-15T20:28:08.447Z,80.20
2023-01-15T20:30:35.315Z,80.40
2023-01-15T20:33:02.217Z,80.30
2023-01-15T20:35:31.577Z,80.40
2023-01-15T20:37:59.110Z,80.40
2023-01-15T20:40:26.338Z,80.30
2023-01-15T20:43:12.038Z,80.30
2023-01-15T20:45:39.495Z,80.30
2023-01-15T20:48:12.619Z,80.20
2023-01-15T20:51:01.134Z,80.20
2023-01-15T20:53:33.772Z,80.30
2023-01-15T20:56:01.464Z,80.30
2023-01-15T20:58:28.559Z,80.00
2023-01-15T21:01:01.928Z,79.90
2023-01-15T21:03:28.855Z,79.90
2023-01-15T21:05:59.070Z,79.90
2023-01-15T21:08:26.031Z,79.70
2023-01-15T21:10:53.837Z,79.70
2023-01-15T21:13:22.979Z,79.70
2023-01-15T21:15:53.624Z,79.70
2023-01-15T21:18:20.576Z,79.70
2023-01-15T21:20:47.534Z,79.60
2023-01-15T21:23:14.427Z,79.50
2023-01-15T21:25:41.267Z,79.60
2023-01-15T21:28:08.267Z,79.60
2023-01-15T21:30:35.124Z,79.60
2023-01-15T21:33:02.275Z,79.50
2023-01-15T21:35:29.172Z,79.40
2023-01-15T21:37:56.026Z,79.30
2023-01-15T21:40:22.911Z,79.30
2023-01-15T21:43:08.318Z,79.30
2023-01-15T21:45:35.228Z,79.10
2023-01-15T21:48:02.152Z,79.20
2023-01-15T21:50:29.566Z,79.10
2023-01-15T21:52:56.432Z,79.00
2023-01-15T21:55:23.303Z,79.10
2023-01-15T21:57:51.546Z,79.00
2023-01-15T22:00:20.679Z,79.00
2023-01-15T22:02:48.225Z,79.00
2023-01-15T22:05:15.318Z,78.90
2023-01-15T22:07:42.127Z,79.00
2023-01-15T22:10:09.367Z,78.90
2023-01-15T22:12:39.617Z,78.80
2023-01-15T22:15:06.797Z,78.70
2023-01-15T22:17:33.685Z,78.70
2023-01-15T22:20:00.602Z,78.60
2023-01-15T22:22:33.008Z,78.50
2023-01-15T22:25:00.128Z,78.40
2023-01-15T22:27:28.183Z,78.30
2023-01-15T22:29:55.175Z,78.20
2023-01-15T22:32:22.072Z,78.10
2023-01-15T22:34:49.086Z,78.00
2023-01-15T22:37:15.972Z,78.00
2023-01-15T22:39:43.015Z,78.00
2023-01-15T22:42:33.018Z,78.00
2023-01-15T22:45:00.754Z,77.80
2023-01-15T22:47:28.970Z,77.80
2023-01-15T22:49:55.959Z,77.60
2023-01-15T22:52:25.428Z,77.50
2023-01-15T22:54:52.423Z,77.30
2023-01-15T22:57:19.533Z,77.10
2023-01-15T22:59:46.589Z,77.10
2023-01-15T23:02:13.696Z,77.10
2023-01-15T23:04:40.806Z,77.00
2023-01-15T23:07:07.833Z,76.90
2023-01-15T23:09:35.191Z,76.80
2023-01-15T23:12:02.427Z,76.70
2023-01-15T23:14:29.471Z,76.70
2023-01-15T23:16:56.396Z,76.60
2023-01-15T23:19:25.081Z,76.50
2023-01-15T23:21:51.946Z,76.30
2023-01-15T23:24:18.842Z,76.20
2023-01-15T23:26:45.710Z,76.20
2023-01-15T23:29:12.526Z,76.30
2023-01-15T23:31:39.415Z,76.20
2023-01-15T23:34:06.285Z,76.20
2023-01-15T23:36:33.231Z,76.20
2023-01-15T23:39:00.087Z,76.20
2023-01-15T23:41:45.791Z,76.30
2023-01-15T23:44:35.208Z,76.30
2023-01-15T23:47:02.466Z,76.40
2023-01-15T23:49:29.458Z,76.40
2023-01-15T23:51:56.343Z,76.70
2023-01-15T23:54:25.686Z,76.90
2023-01-15T23:56:53.141Z,76.80
2023-01-15T23:59:20.070Z,76.90
